Time;durP1;ratioP1;P1;durP2;ratioP2;P2;SDS_P1;SDS_P2;PMS_P1;PMS_P2;Temp;Humidity;BMP_temperature;BMP_pressure;BME280_temperature;BME280_humidity;BME280_pressure;Samples;Min_cycle;Max_cycle;Signal;HPM_P1;HPM_P2
2021/12/29 00:02:22;;;;;;;29.60;19.00;;;6.60;99.90;;;;;;5048546;28;20226;-83
2021/12/29 00:04:49;;;;;;;32.13;18.00;;;6.50;99.90;;;;;;5048482;28;20219;-83
2021/12/29 00:07:15;;;;;;;32.13;17.77;;;6.50;99.90;;;;;;5045491;28;20580;-83
2021/12/29 00:09:42;;;;;;;26.97;17.40;;;6.50;99.90;;;;;;5047647;28;20226;-84
2021/12/29 00:12:10;;;;;;;30.27;18.53;;;6.40;99.90;;;;;;5048546;28;20246;-83
2021/12/29 00:14:38;;;;;;;27.10;17.67;;;6.40;99.90;;;;;;5045708;28;20240;-83
2021/12/29 00:17:05;;;;;;;31.43;18.37;;;6.40;99.90;;;;;;5046420;28;20229;-81
2021/12/29 00:19:33;;;;;;;29.50;18.17;;;6.40;99.90;;;;;;5050623;28;20285;-81
2021/12/29 00:22:00;;;;;;;58.27;18.87;;;6.40;99.90;;;;;;5047057;28;20219;-81
2021/12/29 00:24:27;;;;;;;30.43;18.70;;;6.40;99.90;;;;;;5046418;28;20704;-82
2021/12/29 00:26:54;;;;;;;28.27;17.60;;;6.40;99.90;;;;;;5047675;28;20695;-81
2021/12/29 00:29:20;;;;;;;28.80;17.83;;;6.40;99.90;;;;;;5046914;28;20611;-82
2021/12/29 00:32:08;;;;;;;54.80;18.60;;;6.40;99.90;;;;;;5046299;28;20231;-83
2021/12/29 00:34:54;;;;;;;29.93;19.10;;;6.40;99.90;;;;;;5047365;28;20851;-82
2021/12/29 00:37:40;;;;;;;29.40;17.13;;;6.40;99.90;;;;;;5047336;28;20229;-82
2021/12/29 00:40:32;;;;;;;139.23;23.60;;;6.50;99.90;;;;;;5040666;28;20226;-82
2021/12/29 00:43:17;;;;;;;104.77;22.33;;;6.50;99.90;;;;;;5042945;28;20259;-81
2021/12/29 00:46:12;;;;;;;27.70;17.93;;;6.50;99.90;;;;;;5040146;28;20546;-81
2021/12/29 00:48:41;;;;;;;31.20;18.13;;;6.50;99.90;;;;;;5046607;28;20236;-82
2021/12/29 00:51:10;;;;;;;28.33;18.40;;;6.50;99.90;;;;;;5047565;28;20720;-82
2021/12/29 00:53:38;;;;;;;27.47;18.07;;;6.50;99.90;;;;;;5045573;28;20276;-82
2021/12/29 00:56:06;;;;;;;27.17;17.47;;;6.60;99.90;;;;;;5046182;28;20250;-82
2021/12/29 00:58:33;;;;;;;25.77;16.53;;;6.50;99.90;;;;;;5047064;28;20258;-82
2021/12/29 01:01:00;;;;;;;29.23;18.70;;;6.50;99.90;;;;;;5045345;28;20227;-82
2021/12/29 01:03:28;;;;;;;28.10;18.03;;;6.40;99.90;;;;;;5045124;28;20272;-83
2021/12/29 01:05:55;;;;;;;29.60;18.60;;;6.40;99.90;;;;;;5042363;28;20670;-82
2021/12/29 01:08:24;;;;;;;32.27;20.47;;;6.40;99.90;;;;;;5057653;28;20224;-83
2021/12/29 01:10:50;;;;;;;39.17;19.80;;;6.50;99.90;;;;;;5047218;28;20224;-78
2021/12/29 01:13:19;;;;;;;35.53;20.77;;;6.40;99.90;;;;;;5048014;28;20333;-81
2021/12/29 01:15:57;;;;;;;33.03;20.93;;;6.40;99.90;;;;;;5052516;28;20233;-81
2021/12/29 01:18:25;;;;;;;33.47;19.67;;;6.50;99.90;;;;;;5048888;28;20243;-80
2021/12/29 01:20:52;;;;;;;31.57;19.87;;;6.50;99.90;;;;;;5050597;28;20301;-80
2021/12/29 01:23:19;;;;;;;36.93;20.13;;;6.50;99.90;;;;;;5043694;28;20219;-80
2021/12/29 01:25:47;;;;;;;32.30;19.90;;;6.50;99.90;;;;;;5063586;28;20317;-80
2021/12/29 01:28:14;;;;;;;33.07;18.93;;;6.50;99.90;;;;;;5050210;28;20227;-79
2021/12/29 01:30:41;;;;;;;30.63;18.90;;;6.50;99.90;;;;;;5048029;28;20336;-80
2021/12/29 01:33:08;;;;;;;58.60;19.00;;;6.50;99.90;;;;;;5049837;28;20220;-80
2021/12/29 01:35:35;;;;;;;178.83;26.43;;;6.60;99.90;;;;;;5050352;28;20219;-82
2021/12/29 01:38:02;;;;;;;30.53;18.47;;;6.60;99.90;;;;;;5047570;28;20230;-82
2021/12/29 01:40:29;;;;;;;29.17;17.60;;;6.60;99.90;;;;;;5050327;28;20229;-82
2021/12/29 01:42:58;;;;;;;28.33;17.77;;;6.60;99.90;;;;;;5047589;28;20324;-82
2021/12/29 01:45:25;;;;;;;66.80;20.37;;;6.60;99.90;;;;;;5056647;28;20693;-83
2021/12/29 01:47:53;;;;;;;46.37;20.27;;;6.60;99.90;;;;;;5048220;28;21822;-83
2021/12/29 01:50:20;;;;;;;42.37;19.17;;;6.60;99.90;;;;;;5050722;28;20227;-83
2021/12/29 01:52:54;;;;;;;48.27;19.87;;;6.50;99.90;;;;;;5047799;28;20255;-82
2021/12/29 01:55:22;;;;;;;37.10;19.73;;;6.50;99.90;;;;;;5048392;28;20349;-83
2021/12/29 01:57:49;;;;;;;36.17;19.47;;;6.40;99.90;;;;;;5048058;28;20325;-83
2021/12/29 02:00:23;;;;;;;35.83;19.50;;;6.40;99.90;;;;;;5049781;28;20217;-79
2021/12/29 02:02:53;;;;;;;43.83;19.33;;;6.40;99.90;;;;;;5050892;28;20218;-82
2021/12/29 02:05:20;;;;;;;185.67;28.47;;;6.30;99.90;;;;;;5060996;28;20244;-82
2021/12/29 02:07:47;;;;;;;66.90;20.77;;;6.30;99.90;;;;;;5047412;28;20242;-82
2021/12/29 02:10:16;;;;;;;64.57;21.50;;;6.30;99.90;;;;;;5046787;28;20264;-82
2021/12/29 02:12:43;;;;;;;295.40;33.67;;;6.30;99.90;;;;;;5048282;28;20323;-82
2021/12/29 02:15:12;;;;;;;217.70;29.63;;;6.30;99.90;;;;;;5048650;28;20586;-81
2021/12/29 02:17:40;;;;;;;742.70;66.87;;;6.30;99.90;;;;;;5046550;28;20223;-82
2021/12/29 02:20:11;;;;;;;45.87;20.87;;;6.30;99.90;;;;;;5047672;28;20314;-82
2021/12/29 02:22:42;;;;;;;161.37;27.13;;;6.30;99.90;;;;;;5047610;28;20224;-81
2021/12/29 02:25:32;;;;;;;309.33;35.27;;;6.30;99.90;;;;;;5042236;28;20263;-82
2021/12/29 02:28:01;;;;;;;234.00;31.47;;;6.30;99.90;;;;;;5049187;28;20215;-82
2021/12/29 02:30:28;;;;;;;75.20;22.43;;;6.30;99.90;;;;;;5041786;28;21710;-82
2021/12/29 02:32:57;;;;;;;63.17;21.90;;;6.30;99.90;;;;;;5045211;28;20255;-82
2021/12/29 02:35:26;;;;;;;57.20;21.03;;;6.30;99.90;;;;;;5047142;28;20472;-82
2021/12/29 02:37:53;;;;;;;57.70;21.33;;;6.30;99.90;;;;;;5046902;28;20313;-81
2021/12/29 02:40:20;;;;;;;54.90;21.93;;;6.30;99.90;;;;;;5042319;28;20212;-81
2021/12/29 02:42:47;;;;;;;124.60;23.73;;;6.30;99.90;;;;;;5046177;28;20241;-81
2021/12/29 02:45:18;;;;;;;83.27;23.57;;;6.40;99.90;;;;;;5048110;28;20658;-82
2021/12/29 02:47:45;;;;;;;68.87;22.17;;;6.40;99.90;;;;;;5063500;28;20671;-82
2021/12/29 02:50:14;;;;;;;76.10;22.10;;;6.40;99.90;;;;;;5043192;28;20297;-81
2021/12/29 02:52:44;;;;;;;50.03;20.60;;;6.40;99.90;;;;;;5046250;28;20227;-82
2021/12/29 02:55:11;;;;;;;45.23;21.17;;;6.40;99.90;;;;;;5047936;28;20318;-82
2021/12/29 02:57:38;;;;;;;58.23;22.37;;;6.40;99.90;;;;;;5048678;28;20234;-82
2021/12/29 03:00:06;;;;;;;44.57;21.00;;;6.40;99.90;;;;;;5048295;28;20267;-82
2021/12/29 03:02:33;;;;;;;63.63;21.87;;;6.50;99.90;;;;;;5046069;28;20221;-81
2021/12/29 03:05:01;;;;;;;81.30;31.13;;;6.50;99.90;;;;;;5045417;28;20790;-82
2021/12/29 03:07:28;;;;;;;100.53;38.40;;;6.50;99.90;;;;;;5045987;28;20239;-81
2021/12/29 03:09:56;;;;;;;99.47;32.43;;;6.50;99.90;;;;;;5046987;28;20622;-81
2021/12/29 03:12:23;;;;;;;56.10;24.30;;;6.50;99.90;;;;;;5046093;28;20233;-81
2021/12/29 03:14:52;;;;;;;66.27;27.63;;;6.50;99.90;;;;;;5046626;28;20229;-81
2021/12/29 03:17:19;;;;;;;50.87;22.83;;;6.50;99.90;;;;;;5048310;28;20330;-81
2021/12/29 03:19:46;;;;;;;50.10;21.13;;;6.50;99.90;;;;;;5047691;28;20234;-82
2021/12/29 03:22:13;;;;;;;64.10;22.43;;;6.50;99.90;;;;;;5047886;28;20294;-82
2021/12/29 03:24:39;;;;;;;46.57;21.93;;;6.50;99.90;;;;;;5046920;28;20705;-81
2021/12/29 03:27:07;;;;;;;64.00;24.73;;;6.50;99.90;;;;;;5049006;28;20222;-81
2021/12/29 03:29:34;;;;;;;102.17;24.33;;;6.50;99.90;;;;;;5046520;28;20224;-82
2021/12/29 03:32:06;;;;;;;53.10;22.57;;;6.40;99.90;;;;;;5047070;28;20694;-81
2021/12/29 03:34:33;;;;;;;281.43;34.73;;;6.40;99.90;;;;;;5042837;28;20221;-82
2021/12/29 03:37:00;;;;;;;93.57;24.10;;;6.40;99.90;;;;;;5045941;28;20219;-82
2021/12/29 03:39:27;;;;;;;70.33;24.57;;;6.40;99.90;;;;;;5037133;28;20241;-81
2021/12/29 03:41:54;;;;;;;175.47;79.17;;;6.40;99.90;;;;;;5046185;28;20272;-82
2021/12/29 03:44:22;;;;;;;67.30;26.03;;;6.40;99.90;;;;;;5046661;28;20227;-82
2021/12/29 03:46:49;;;;;;;120.80;28.73;;;6.40;99.90;;;;;;5041112;28;20227;-81
2021/12/29 03:49:16;;;;;;;381.07;65.50;;;6.40;99.90;;;;;;5046926;28;20239;-81
2021/12/29 03:51:42;;;;;;;69.10;28.03;;;6.40;99.90;;;;;;5045660;28;20372;-81
2021/12/29 03:54:09;;;;;;;462.03;49.77;;;6.40;99.90;;;;;;5045658;28;20682;-81
2021/12/29 03:56:36;;;;;;;81.63;39.07;;;6.40;99.90;;;;;;5049626;28;20259;-81
2021/12/29 03:59:03;;;;;;;239.37;95.77;;;6.40;99.90;;;;;;5048005;28;20227;-81
2021/12/29 04:01:31;;;;;;;278.90;53.87;;;6.40;99.90;;;;;;5043161;28;20234;-81
2021/12/29 04:03:58;;;;;;;65.07;31.07;;;6.40;99.90;;;;;;5058526;28;20221;-81
2021/12/29 04:06:24;;;;;;;222.43;40.80;;;6.40;99.90;;;;;;5042694;28;22759;-80
2021/12/29 04:08:51;;;;;;;49.47;25.90;;;6.40;99.90;;;;;;5042702;28;20824;-81
2021/12/29 04:11:20;;;;;;;81.10;37.00;;;6.40;99.90;;;;;;5047776;28;20247;-82
2021/12/29 04:13:47;;;;;;;47.77;27.33;;;6.40;99.90;;;;;;5046726;28;20242;-81
2021/12/29 04:16:17;;;;;;;61.97;27.53;;;6.40;99.90;;;;;;5047218;28;20240;-81
2021/12/29 04:19:05;;;;;;;53.67;26.27;;;6.40;99.90;;;;;;5045260;28;20230;-81
2021/12/29 04:21:34;;;;;;;219.17;41.93;;;6.40;99.90;;;;;;5046997;28;20227;-83
2021/12/29 04:24:00;;;;;;;53.30;27.40;;;6.40;99.90;;;;;;5045877;28;20216;-84
2021/12/29 04:26:27;;;;;;;48.53;24.53;;;6.40;99.90;;;;;;5046963;28;20242;-83
2021/12/29 04:28:54;;;;;;;46.07;23.63;;;6.40;99.90;;;;;;5044954;28;20301;-82
2021/12/29 04:31:21;;;;;;;115.13;27.90;;;6.40;99.90;;;;;;5043950;28;20224;-81
2021/12/29 04:33:49;;;;;;;57.00;24.07;;;6.40;99.90;;;;;;5054826;28;20234;-82
2021/12/29 04:36:16;;;;;;;50.83;24.57;;;6.40;99.90;;;;;;5046841;28;20220;-81
2021/12/29 04:38:43;;;;;;;60.50;24.80;;;6.40;99.90;;;;;;5047162;28;20218;-82
2021/12/29 04:41:10;;;;;;;44.47;22.90;;;6.40;99.90;;;;;;5047399;28;20222;-83
2021/12/29 04:43:37;;;;;;;59.40;28.77;;;6.50;99.90;;;;;;5045038;28;20260;-82
2021/12/29 04:46:04;;;;;;;68.90;25.90;;;6.50;99.90;;;;;;5049128;28;20289;-82
2021/12/29 04:48:37;;;;;;;333.33;39.67;;;6.50;99.90;;;;;;5063836;28;20700;-82
2021/12/29 04:51:11;;;;;;;102.67;27.30;;;6.50;99.90;;;;;;5046708;28;20691;-82
2021/12/29 04:53:38;;;;;;;65.87;25.07;;;6.60;99.90;;;;;;5048198;28;20675;-82
2021/12/29 04:56:05;;;;;;;51.17;23.57;;;6.60;99.90;;;;;;5049029;28;20229;-82
2021/12/29 04:58:32;;;;;;;49.70;24.27;;;6.60;99.90;;;;;;5049618;28;20232;-82
2021/12/29 05:00:59;;;;;;;53.70;26.47;;;6.60;99.90;;;;;;5051000;28;20221;-80
2021/12/29 05:03:26;;;;;;;49.57;25.20;;;6.60;99.90;;;;;;5049547;28;20215;-80
2021/12/29 05:08:24;;;;;;;84.07;35.87;;;6.60;99.90;;;;;;5046221;28;20247;-80
2021/12/29 05:08:43;;;;;;;75.10;33.63;;;6.60;99.90;;;;;;5063589;28;20234;-80
2021/12/29 05:11:13;;;;;;;66.37;31.83;;;6.60;99.90;;;;;;5050410;28;20657;-83
2021/12/29 05:13:43;;;;;;;65.07;30.63;;;6.60;99.90;;;;;;5048508;28;20269;-79
2021/12/29 05:16:09;;;;;;;55.87;26.27;;;6.60;99.90;;;;;;5049439;28;20972;-81
2021/12/29 05:18:38;;;;;;;98.37;41.97;;;6.60;99.90;;;;;;5062444;28;20227;-83
2021/12/29 05:21:07;;;;;;;71.40;32.90;;;6.60;99.90;;;;;;5047185;28;20219;-82
2021/12/29 05:23:35;;;;;;;181.80;61.07;;;6.60;99.90;;;;;;5061205;28;20224;-83
2021/12/29 05:26:04;;;;;;;591.57;63.23;;;6.60;99.90;;;;;;5049324;28;20234;-80
2021/12/29 05:28:31;;;;;;;60.33;25.57;;;6.60;99.90;;;;;;5052061;28;20225;-78
2021/12/29 05:30:57;;;;;;;51.17;26.90;;;6.60;99.90;;;;;;5048728;28;20228;-80
2021/12/29 05:33:24;;;;;;;65.90;25.67;;;6.60;99.90;;;;;;5045803;28;20219;-82
2021/12/29 05:35:51;;;;;;;143.13;34.13;;;6.60;99.90;;;;;;5049466;28;20220;-81
2021/12/29 05:38:18;;;;;;;259.93;44.63;;;6.60;99.90;;;;;;5049311;28;20812;-81
2021/12/29 05:40:45;;;;;;;69.43;31.87;;;6.60;99.90;;;;;;5046042;28;20215;-81
2021/12/29 05:43:13;;;;;;;92.57;29.77;;;6.60;99.90;;;;;;5046941;28;20714;-81
2021/12/29 05:45:40;;;;;;;256.80;37.83;;;6.60;99.90;;;;;;5041822;28;20216;-81
2021/12/29 05:48:07;;;;;;;324.30;41.90;;;6.70;99.90;;;;;;5047881;28;20302;-81
2021/12/29 05:50:34;;;;;;;54.27;24.53;;;6.70;99.90;;;;;;5044533;28;20235;-81
2021/12/29 05:53:02;;;;;;;47.97;23.67;;;6.70;99.90;;;;;;5045627;28;20214;-81
2021/12/29 05:55:29;;;;;;;42.07;23.40;;;6.70;99.90;;;;;;5043084;28;20238;-81
2021/12/29 05:57:56;;;;;;;223.50;34.47;;;6.70;99.90;;;;;;5048823;28;20222;-81
2021/12/29 06:00:27;;;;;;;49.37;23.63;;;6.70;99.90;;;;;;5047237;28;20224;-81
2021/12/29 06:02:54;;;;;;;47.37;24.13;;;6.80;99.90;;;;;;5047511;28;20221;-81
2021/12/29 06:05:21;;;;;;;97.17;26.20;;;6.80;99.90;;;;;;5048360;28;20225;-80
2021/12/29 06:07:49;;;;;;;142.97;29.83;;;6.80;99.90;;;;;;5048348;28;20288;-80
2021/12/29 06:10:15;;;;;;;108.63;26.00;;;6.80;99.90;;;;;;5048791;28;20223;-81
2021/12/29 06:12:44;;;;;;;49.07;24.33;;;6.90;99.90;;;;;;5045587;28;20235;-81
2021/12/29 06:15:11;;;;;;;60.47;30.47;;;6.90;99.90;;;;;;5041374;28;20235;-81
2021/12/29 06:17:40;;;;;;;90.03;27.67;;;6.90;99.90;;;;;;5044334;28;20220;-81
2021/12/29 06:20:10;;;;;;;54.27;25.53;;;6.90;99.90;;;;;;5047169;28;20225;-81
2021/12/29 06:22:37;;;;;;;122.47;29.37;;;6.90;99.90;;;;;;5046482;28;20656;-81
2021/12/29 06:25:04;;;;;;;384.87;46.07;;;6.90;99.90;;;;;;5045021;28;20229;-80
2021/12/29 06:27:32;;;;;;;226.07;33.80;;;6.90;99.90;;;;;;5044801;28;20221;-80
2021/12/29 06:29:59;;;;;;;236.50;35.23;;;6.90;99.90;;;;;;5043200;28;20215;-83
2021/12/29 06:32:26;;;;;;;97.57;26.47;;;6.90;99.90;;;;;;5046854;28;20322;-83
2021/12/29 06:34:56;;;;;;;56.77;24.67;;;6.90;99.90;;;;;;5047186;28;20227;-81
2021/12/29 06:37:23;;;;;;;45.20;24.67;;;6.90;99.90;;;;;;5045868;28;20221;-81
2021/12/29 06:39:50;;;;;;;315.63;38.20;;;6.90;99.90;;;;;;5044793;28;20315;-81
2021/12/29 06:42:18;;;;;;;63.13;27.50;;;6.90;99.90;;;;;;5046835;28;20222;-81
2021/12/29 06:44:46;;;;;;;83.10;51.50;;;6.90;99.90;;;;;;5043371;28;20393;-82
2021/12/29 06:47:14;;;;;;;74.00;45.17;;;6.90;99.90;;;;;;5046865;28;20232;-81
2021/12/29 06:49:41;;;;;;;59.23;29.50;;;6.90;99.90;;;;;;5046335;28;20221;-81
2021/12/29 06:52:10;;;;;;;43.27;25.47;;;6.80;99.90;;;;;;5046807;28;20234;-81
2021/12/29 06:54:38;;;;;;;46.73;24.93;;;6.80;99.90;;;;;;5046303;28;20231;-81
2021/12/29 06:57:05;;;;;;;51.00;28.13;;;6.80;99.90;;;;;;5046885;28;20657;-81
2021/12/29 06:59:32;;;;;;;46.20;24.53;;;6.80;99.90;;;;;;5047192;28;20223;-81
2021/12/29 07:01:59;;;;;;;44.07;23.83;;;6.70;99.90;;;;;;5045929;28;20227;-81
2021/12/29 07:04:26;;;;;;;43.23;24.30;;;6.70;99.90;;;;;;5046270;28;20223;-81
2021/12/29 07:06:53;;;;;;;66.27;26.53;;;6.70;99.90;;;;;;5036892;28;20699;-81
2021/12/29 07:09:22;;;;;;;44.57;24.53;;;6.70;99.90;;;;;;5048718;28;20220;-82
2021/12/29 07:11:49;;;;;;;44.03;24.33;;;6.60;99.90;;;;;;5048167;28;20699;-81
2021/12/29 07:14:15;;;;;;;44.90;23.47;;;6.60;99.90;;;;;;5045985;28;20747;-81
2021/12/29 07:16:44;;;;;;;43.00;23.33;;;6.60;99.90;;;;;;5042063;28;20304;-81
2021/12/29 07:19:11;;;;;;;118.23;27.23;;;6.60;99.90;;;;;;5047934;28;20266;-81
2021/12/29 07:21:38;;;;;;;105.07;27.60;;;6.60;99.90;;;;;;5048618;28;20208;-81
2021/12/29 07:24:06;;;;;;;291.47;37.60;;;6.60;99.90;;;;;;5041728;28;20251;-81
2021/12/29 07:26:34;;;;;;;46.03;24.00;;;6.60;99.90;;;;;;5048454;28;20599;-81
2021/12/29 07:29:01;;;;;;;43.83;23.57;;;6.70;99.90;;;;;;5047048;28;20239;-81
2021/12/29 07:31:28;;;;;;;55.27;24.10;;;6.60;99.90;;;;;;5047916;28;20231;-81
2021/12/29 07:33:55;;;;;;;43.70;22.53;;;6.70;99.90;;;;;;5046804;28;20573;-82
2021/12/29 07:36:22;;;;;;;52.03;23.13;;;6.70;99.90;;;;;;5042887;28;20742;-81
2021/12/29 07:38:48;;;;;;;39.43;23.60;;;6.70;99.90;;;;;;5048319;28;20565;-81
2021/12/29 07:41:16;;;;;;;90.17;26.07;;;6.70;99.90;;;;;;5043571;28;20234;-81
2021/12/29 07:43:44;;;;;;;53.87;23.97;;;6.70;99.90;;;;;;5045146;28;20219;-81
2021/12/29 07:46:13;;;;;;;76.57;24.87;;;6.70;99.90;;;;;;5045814;28;20219;-81
2021/12/29 07:48:40;;;;;;;56.60;24.03;;;6.70;99.90;;;;;;5044275;28;20227;-81
2021/12/29 07:51:07;;;;;;;44.97;25.30;;;6.70;99.90;;;;;;5045853;28;20695;-81
2021/12/29 07:53:37;;;;;;;45.37;24.60;;;6.70;99.90;;;;;;5045225;28;20259;-80
2021/12/29 07:56:06;;;;;;;70.23;25.70;;;6.70;99.90;;;;;;5044769;28;20231;-80
2021/12/29 07:58:33;;;;;;;96.03;26.40;;;6.70;99.90;;;;;;5048685;28;20220;-81
2021/12/29 08:01:01;;;;;;;47.20;24.07;;;6.70;99.90;;;;;;5045044;28;20234;-82
2021/12/29 08:03:28;;;;;;;59.90;26.23;;;6.70;99.90;;;;;;5046265;28;20333;-82
2021/12/29 08:05:55;;;;;;;95.00;26.70;;;6.70;99.90;;;;;;5046787;28;20565;-82
2021/12/29 08:08:22;;;;;;;49.50;24.97;;;6.70;99.90;;;;;;5037879;28;20331;-81
2021/12/29 08:10:49;;;;;;;377.33;44.93;;;6.70;99.90;;;;;;5045651;28;20213;-81
2021/12/29 08:13:16;;;;;;;66.17;26.53;;;6.70;99.90;;;;;;5046921;28;20312;-82
2021/12/29 08:15:43;;;;;;;50.70;26.37;;;6.70;99.90;;;;;;5044182;28;20230;-81
2021/12/29 08:18:11;;;;;;;55.67;26.83;;;6.70;99.90;;;;;;5046868;28;20222;-82
2021/12/29 08:20:38;;;;;;;111.53;29.07;;;6.70;99.90;;;;;;5039835;28;20558;-81
2021/12/29 08:23:06;;;;;;;49.57;25.37;;;6.70;99.90;;;;;;5055280;28;20215;-81
2021/12/29 08:25:34;;;;;;;128.67;30.27;;;6.80;99.90;;;;;;5038631;28;20681;-82
2021/12/29 08:28:01;;;;;;;49.80;24.80;;;6.80;99.90;;;;;;5046464;28;20249;-81
2021/12/29 08:30:29;;;;;;;52.30;25.20;;;6.80;99.90;;;;;;5045924;28;20231;-81
2021/12/29 08:32:56;;;;;;;46.00;25.03;;;6.80;99.90;;;;;;5058889;28;20230;-81
2021/12/29 08:35:27;;;;;;;47.93;26.13;;;6.80;99.90;;;;;;5047355;28;20681;-81
2021/12/29 08:37:55;;;;;;;45.97;25.93;;;6.80;99.90;;;;;;5042112;28;20680;-81
2021/12/29 08:40:22;;;;;;;55.43;24.80;;;6.90;99.90;;;;;;5045691;28;20888;-81
2021/12/29 08:42:49;;;;;;;44.47;26.23;;;6.90;99.90;;;;;;5043874;28;20227;-81
2021/12/29 08:45:17;;;;;;;104.57;28.13;;;6.90;99.90;;;;;;5044470;28;20346;-81
2021/12/29 08:47:45;;;;;;;73.13;26.57;;;6.90;99.90;;;;;;5046505;28;20223;-81
2021/12/29 08:50:15;;;;;;;48.63;25.93;;;6.90;99.90;;;;;;5065637;28;20227;-80
2021/12/29 08:52:44;;;;;;;93.50;27.97;;;6.90;99.90;;;;;;5046828;28;20578;-82
2021/12/29 08:55:12;;;;;;;44.17;24.03;;;6.90;99.90;;;;;;5044664;28;20723;-80
2021/12/29 08:57:39;;;;;;;46.10;23.53;;;7.00;99.90;;;;;;5044584;28;20223;-81
2021/12/29 09:00:08;;;;;;;41.00;21.90;;;7.00;99.90;;;;;;5047208;28;20220;-82
2021/12/29 09:02:35;;;;;;;100.00;26.83;;;7.00;99.90;;;;;;5061096;28;20220;-81
2021/12/29 09:05:01;;;;;;;42.57;23.30;;;7.10;99.90;;;;;;5044506;28;20222;-81
2021/12/29 09:07:28;;;;;;;62.57;24.77;;;7.10;99.90;;;;;;5041408;28;20315;-81
2021/12/29 09:09:56;;;;;;;46.53;24.87;;;7.10;99.90;;;;;;5043790;28;20216;-81
2021/12/29 09:12:23;;;;;;;43.10;24.40;;;7.10;99.90;;;;;;5046372;28;20228;-82
2021/12/29 09:14:50;;;;;;;49.90;25.23;;;7.20;99.90;;;;;;5044678;28;20258;-82
2021/12/29 09:17:17;;;;;;;265.80;36.73;;;7.20;99.90;;;;;;5038075;28;20236;-81
2021/12/29 09:19:45;;;;;;;48.90;23.90;;;7.20;99.90;;;;;;5043988;28;20220;-78
2021/12/29 09:22:12;;;;;;;55.63;24.33;;;7.20;99.90;;;;;;5045656;28;20221;-76
2021/12/29 09:24:40;;;;;;;46.30;25.40;;;7.20;99.90;;;;;;5045523;28;20230;-78
2021/12/29 09:27:08;;;;;;;47.93;25.60;;;7.30;99.90;;;;;;5043770;28;20310;-78
2021/12/29 09:29:35;;;;;;;50.27;25.13;;;7.30;99.90;;;;;;5042972;28;20668;-78
2021/12/29 09:32:02;;;;;;;51.07;25.50;;;7.30;99.90;;;;;;5048900;28;20228;-78
2021/12/29 09:34:30;;;;;;;42.80;24.30;;;7.40;99.90;;;;;;5057609;28;20311;-77
2021/12/29 09:36:57;;;;;;;61.50;25.43;;;7.40;99.90;;;;;;5047503;28;20234;-78
2021/12/29 09:39:24;;;;;;;53.87;25.57;;;7.40;99.90;;;;;;5046477;28;20219;-78
2021/12/29 09:41:51;;;;;;;47.80;25.03;;;7.40;99.90;;;;;;5049119;28;20219;-78
2021/12/29 09:44:20;;;;;;;65.10;26.73;;;7.50;99.90;;;;;;5048838;28;20223;-77
2021/12/29 09:46:48;;;;;;;120.33;28.83;;;7.50;99.90;;;;;;5044581;28;20226;-76
2021/12/29 09:49:15;;;;;;;39.57;23.53;;;7.50;99.90;;;;;;5049981;28;20234;-78
2021/12/29 09:51:42;;;;;;;65.07;25.87;;;7.60;99.90;;;;;;5049235;28;20695;-78
2021/12/29 09:54:09;;;;;;;49.50;25.63;;;7.60;99.90;;;;;;5051786;28;20245;-77
2021/12/29 09:56:36;;;;;;;43.63;24.77;;;7.60;99.90;;;;;;5049921;28;20228;-77
2021/12/29 09:59:03;;;;;;;50.80;26.90;;;7.60;99.90;;;;;;5049401;28;20304;-78
2021/12/29 10:01:31;;;;;;;46.87;25.20;;;7.70;99.90;;;;;;5049268;28;20538;-78
2021/12/29 10:03:59;;;;;;;50.27;25.63;;;7.70;99.90;;;;;;5050554;28;20270;-78
2021/12/29 10:06:26;;;;;;;45.80;25.00;;;7.70;99.90;;;;;;5046022;28;20231;-78
2021/12/29 10:08:53;;;;;;;46.93;24.73;;;7.70;99.90;;;;;;5047338;28;20223;-78
2021/12/29 10:11:27;;;;;;;37.20;23.57;;;7.80;99.90;;;;;;5062936;28;21190;-78
2021/12/29 10:13:54;;;;;;;44.20;24.50;;;7.70;99.90;;;;;;5047419;28;20782;-78
2021/12/29 10:16:24;;;;;;;69.93;26.13;;;7.80;99.90;;;;;;5047313;28;20232;-78
2021/12/29 10:18:59;;;;;;;47.50;25.53;;;7.80;99.90;;;;;;5045986;28;20278;-77
2021/12/29 10:21:26;;;;;;;51.50;25.93;;;7.80;99.90;;;;;;5037613;28;20304;-78
2021/12/29 10:23:56;;;;;;;44.20;24.90;;;7.80;99.90;;;;;;5043736;28;20595;-77
2021/12/29 10:26:25;;;;;;;54.67;26.63;;;7.90;99.90;;;;;;5062515;28;20307;-81
2021/12/29 10:28:54;;;;;;;44.03;26.27;;;7.90;99.90;;;;;;5047582;28;20239;-78
2021/12/29 10:31:23;;;;;;;54.37;25.97;;;7.90;99.90;;;;;;5058447;28;20232;-77
2021/12/29 10:33:53;;;;;;;58.60;27.03;;;8.00;99.90;;;;;;5044505;28;20326;-77
2021/12/29 10:36:24;;;;;;;51.27;26.33;;;8.00;99.90;;;;;;5045371;28;20228;-77
2021/12/29 10:38:58;;;;;;;49.80;26.60;;;8.00;99.90;;;;;;5043775;28;20592;-77
2021/12/29 10:41:25;;;;;;;54.33;26.00;;;8.10;99.90;;;;;;5045503;28;20215;-77
2021/12/29 10:43:58;;;;;;;42.53;24.73;;;8.10;99.90;;;;;;5044591;28;20661;-77
2021/12/29 10:46:27;;;;;;;46.13;25.73;;;8.10;99.90;;;;;;5044485;28;20226;-77
2021/12/29 10:48:55;;;;;;;47.17;25.63;;;8.20;99.90;;;;;;5045643;28;20220;-77
2021/12/29 10:51:29;;;;;;;44.77;26.17;;;8.20;99.90;;;;;;5056483;28;20248;-77
2021/12/29 10:54:06;;;;;;;49.53;28.60;;;8.20;99.90;;;;;;5045260;28;20700;-78
2021/12/29 10:56:33;;;;;;;60.20;26.70;;;8.20;99.90;;;;;;5040902;28;20692;-77
2021/12/29 10:59:11;;;;;;;67.00;28.03;;;8.30;99.90;;;;;;5046732;28;20222;-77
2021/12/29 11:01:38;;;;;;;49.33;26.50;;;8.30;99.90;;;;;;5044700;28;20286;-77
2021/12/29 11:04:08;;;;;;;46.47;25.20;;;8.30;99.90;;;;;;5044760;28;20732;-77
2021/12/29 11:06:40;;;;;;;49.80;26.83;;;8.30;99.90;;;;;;5047106;28;20231;-77
2021/12/29 11:09:06;;;;;;;46.67;26.07;;;8.30;99.90;;;;;;5048049;28;20631;-77
2021/12/29 11:11:35;;;;;;;45.47;25.83;;;8.40;99.90;;;;;;5046233;28;20222;-77
2021/12/29 11:14:10;;;;;;;62.03;28.10;;;8.40;99.90;;;;;;5046072;28;20231;-76
2021/12/29 11:16:37;;;;;;;49.93;26.30;;;8.40;99.90;;;;;;5045456;28;20714;-77
2021/12/29 11:19:06;;;;;;;51.27;26.50;;;8.50;99.90;;;;;;5045570;28;20231;-76
2021/12/29 11:21:36;;;;;;;55.03;30.23;;;8.50;99.90;;;;;;5044863;28;20228;-77
2021/12/29 11:24:13;;;;;;;46.97;26.00;;;8.50;99.90;;;;;;5046473;28;20215;-76
2021/12/29 11:26:40;;;;;;;44.40;26.17;;;8.60;99.90;;;;;;5043581;28;20224;-76
2021/12/29 11:29:09;;;;;;;46.40;26.40;;;8.60;99.90;;;;;;5043246;28;20220;-77
2021/12/29 11:31:38;;;;;;;48.13;26.60;;;8.60;99.90;;;;;;5044840;28;20235;-76
2021/12/29 11:34:24;;;;;;;49.90;26.97;;;8.70;99.90;;;;;;5045329;28;20220;-77
2021/12/29 11:37:02;;;;;;;87.77;28.73;;;8.70;99.90;;;;;;5045335;28;21321;-76
2021/12/29 11:39:29;;;;;;;45.40;26.70;;;8.70;99.90;;;;;;5045559;28;20220;-77
2021/12/29 11:41:56;;;;;;;47.00;26.20;;;8.80;99.90;;;;;;5045588;28;20287;-77
2021/12/29 11:44:23;;;;;;;47.60;26.83;;;8.80;99.90;;;;;;5043904;28;20233;-78
2021/12/29 11:46:51;;;;;;;47.83;25.97;;;8.80;99.90;;;;;;5046967;28;20302;-77
2021/12/29 11:49:19;;;;;;;47.00;25.60;;;8.80;99.90;;;;;;5045099;28;20226;-78
2021/12/29 11:51:55;;;;;;;49.80;26.80;;;8.80;99.90;;;;;;5043773;28;20778;-77
2021/12/29 11:54:26;;;;;;;47.27;26.47;;;8.80;99.90;;;;;;5046390;28;20218;-77
2021/12/29 11:56:53;;;;;;;51.97;27.47;;;8.80;99.90;;;;;;5045660;28;20231;-78
2021/12/29 11:59:30;;;;;;;45.73;26.60;;;8.80;99.90;;;;;;5046910;28;20217;-77
2021/12/29 12:02:02;;;;;;;49.10;26.40;;;8.90;99.90;;;;;;5038655;28;20223;-77
2021/12/29 12:04:30;;;;;;;52.20;28.37;;;8.90;99.90;;;;;;5045568;28;20242;-77
2021/12/29 12:07:03;;;;;;;53.73;26.60;;;8.90;99.90;;;;;;5045719;28;20775;-77
2021/12/29 12:09:43;;;;;;;49.37;26.70;;;8.90;99.90;;;;;;5045439;28;20614;-77
2021/12/29 12:12:12;;;;;;;47.47;27.67;;;8.90;99.90;;;;;;5040130;28;20528;-77
2021/12/29 12:14:46;;;;;;;46.43;26.80;;;8.90;99.90;;;;;;5044529;28;20227;-77
2021/12/29 12:17:14;;;;;;;46.63;26.10;;;8.90;99.90;;;;;;5046050;28;20220;-78
2021/12/29 12:19:44;;;;;;;48.60;26.90;;;8.90;99.90;;;;;;5046630;28;20315;-78
2021/12/29 12:22:13;;;;;;;51.27;27.90;;;8.90;99.90;;;;;;5047661;28;20227;-78
2021/12/29 12:24:56;;;;;;;48.30;26.83;;;8.90;99.90;;;;;;5046713;28;20225;-78
2021/12/29 12:27:27;;;;;;;46.43;25.87;;;8.90;99.90;;;;;;5046874;28;20569;-77
2021/12/29 12:30:02;;;;;;;54.83;27.80;;;8.90;99.90;;;;;;5043286;28;20231;-78
2021/12/29 12:32:40;;;;;;;50.67;27.60;;;9.00;99.90;;;;;;5046081;28;20227;-77
2021/12/29 12:35:08;;;;;;;54.30;27.87;;;9.00;99.90;;;;;;5039812;28;20213;-77
2021/12/29 12:37:38;;;;;;;50.03;27.93;;;9.00;99.90;;;;;;5045582;28;20307;-77
2021/12/29 12:40:07;;;;;;;52.30;28.20;;;9.10;99.90;;;;;;5061799;28;20217;-78
2021/12/29 12:42:35;;;;;;;50.03;28.20;;;9.00;99.90;;;;;;5045555;28;20235;-77
2021/12/29 12:45:02;;;;;;;46.03;25.73;;;9.10;99.90;;;;;;5040908;28;20735;-78